Time;durP1;ratioP1;P1;durP2;ratioP2;P2;SDS_P1;SDS_P2;PMS_P1;PMS_P2;Temp;Humidity;BMP_temperature;BMP_pressure;BME280_temperature;BME280_humidity;BME280_pressure;Samples;Min_cycle;Max_cycle;Signal;HPM_P1;HPM_P2
2021/03/30 00:01:45;;;;;;;0.10;0.10;;;;;;;;;;5096738;28;20369;-65
2021/03/30 00:04:10;;;;;;;0.10;0.10;;;;;;;;;;5096299;28;20050;-66
2021/03/30 00:06:35;;;;;;;0.00;0.00;;;;;;;;;;5096205;28;20460;-65
2021/03/30 00:09:01;;;;;;;0.03;0.03;;;;;;;;;;5079120;28;20322;-66
2021/03/30 00:11:26;;;;;;;0.10;0.10;;;;;;;;;;5096405;28;20380;-66
2021/03/30 00:13:51;;;;;;;0.00;0.00;;;;;;;;;;5079852;28;20084;-65
2021/03/30 00:16:16;;;;;;;0.00;0.00;;;;;;;;;;5096964;28;20281;-65
2021/03/30 00:18:41;;;;;;;0.10;0.10;;;;;;;;;;5113370;28;20340;-65
2021/03/30 00:21:09;;;;;;;0.10;0.10;;;;;;;;;;5079002;28;20054;-65
2021/03/30 00:23:34;;;;;;;0.10;0.10;;;;;;;;;;5094384;28;20265;-65
2021/03/30 00:25:59;;;;;;;0.10;0.10;;;;;;;;;;5090517;28;20054;-65
2021/03/30 00:28:25;;;;;;;0.10;0.10;;;;;;;;;;5094555;28;20024;-64
2021/03/30 00:30:50;;;;;;;0.08;0.08;;;;;;;;;;5079081;28;20755;-66
2021/03/30 00:33:15;;;;;;;0.10;0.10;;;;;;;;;;5078627;28;20028;-65
2021/03/30 00:35:40;;;;;;;0.10;0.10;;;;;;;;;;5095284;28;20023;-65
2021/03/30 00:38:09;;;;;;;0.00;0.00;;;;;;;;;;5078139;28;20258;-65
2021/03/30 00:40:35;;;;;;;0.10;0.10;;;;;;;;;;5114466;28;20019;-65
2021/03/30 00:43:00;;;;;;;0.00;0.00;;;;;;;;;;5078530;28;20472;-65
2021/03/30 00:45:25;;;;;;;0.10;0.10;;;;;;;;;;5078901;28;20043;-65
2021/03/30 00:47:51;;;;;;;0.10;0.10;;;;;;;;;;5095528;28;20024;-65
2021/03/30 00:50:17;;;;;;;0.10;0.10;;;;;;;;;;5078435;28;20753;-64
2021/03/30 00:52:43;;;;;;;0.05;0.05;;;;;;;;;;5095360;28;20387;-65
2021/03/30 00:55:08;;;;;;;0.10;0.10;;;;;;;;;;5094662;28;20015;-66
2021/03/30 00:57:34;;;;;;;0.00;0.00;;;;;;;;;;5095957;28;20068;-65
2021/03/30 00:59:59;;;;;;;0.10;0.10;;;;;;;;;;5079137;28;20023;-65
2021/03/30 01:02:24;;;;;;;0.00;0.00;;;;;;;;;;5095094;28;20106;-64
2021/03/30 01:04:49;;;;;;;0.10;0.10;;;;;;;;;;5078505;28;20867;-65
2021/03/30 01:07:15;;;;;;;0.10;0.10;;;;;;;;;;5094877;28;20057;-65
2021/03/30 01:09:58;;;;;;;0.10;0.10;;;;;;;;;;5093394;28;20385;-65
2021/03/30 01:12:26;;;;;;;0.10;0.10;;;;;;;;;;5094900;28;20269;-66
2021/03/30 01:14:54;;;;;;;0.10;0.10;;;;;;;;;;5113037;28;20012;-65
2021/03/30 01:17:19;;;;;;;0.10;0.10;;;;;;;;;;5113158;28;20028;-65
2021/03/30 01:20:03;;;;;;;0.10;0.10;;;;;;;;;;5095172;28;20020;-66
2021/03/30 01:22:47;;;;;;;0.10;0.10;;;;;;;;;;5111576;28;20677;-66
2021/03/30 01:25:12;;;;;;;0.10;0.10;;;;;;;;;;5112459;28;20499;-66
2021/03/30 01:27:49;;;;;;;0.10;0.10;;;;;;;;;;5094659;28;20047;-65
2021/03/30 01:30:15;;;;;;;0.10;0.10;;;;;;;;;;5113159;28;20028;-66
2021/03/30 01:32:53;;;;;;;0.10;0.10;;;;;;;;;;5094658;28;20091;-66
2021/03/30 01:35:23;;;;;;;0.10;0.10;;;;;;;;;;5094022;28;20107;-65
2021/03/30 01:37:48;;;;;;;0.10;0.10;;;;;;;;;;5093427;28;20369;-66
2021/03/30 01:40:14;;;;;;;0.10;0.10;;;;;;;;;;5093068;28;20024;-66
2021/03/30 01:42:39;;;;;;;0.10;0.10;;;;;;;;;;5094465;28;20103;-66
2021/03/30 01:45:05;;;;;;;0.10;0.10;;;;;;;;;;5093763;28;20031;-66
2021/03/30 01:47:30;;;;;;;0.10;0.10;;;;;;;;;;5112687;28;20676;-66
2021/03/30 01:49:55;;;;;;;0.10;0.10;;;;;;;;;;5094007;28;20050;-65
2021/03/30 01:52:20;;;;;;;0.10;0.10;;;;;;;;;;5094043;28;20050;-65
2021/03/30 01:54:46;;;;;;;0.10;0.10;;;;;;;;;;5093583;28;20027;-66
2021/03/30 01:57:13;;;;;;;0.10;0.10;;;;;;;;;;5094168;28;20265;-65
2021/03/30 01:59:39;;;;;;;0.10;0.10;;;;;;;;;;5093179;28;20047;-66
2021/03/30 02:02:04;;;;;;;0.10;0.10;;;;;;;;;;5077639;28;20748;-65
2021/03/30 02:04:29;;;;;;;0.10;0.10;;;;;;;;;;5093995;28;20419;-66
2021/03/30 02:06:54;;;;;;;0.10;0.10;;;;;;;;;;5093930;28;20019;-66
2021/03/30 02:09:24;;;;;;;0.10;0.10;;;;;;;;;;5093774;28;20046;-66
2021/03/30 02:11:58;;;;;;;0.10;0.10;;;;;;;;;;5077452;28;20307;-65
2021/03/30 02:14:23;;;;;;;0.10;0.10;;;;;;;;;;5078426;28;20574;-65
2021/03/30 02:16:55;;;;;;;0.10;0.10;;;;;;;;;;5077219;28;20023;-66
2021/03/30 02:19:23;;;;;;;0.00;0.00;;;;;;;;;;5093186;28;20023;-65
2021/03/30 02:21:58;;;;;;;0.10;0.10;;;;;;;;;;5092381;28;20145;-65
2021/03/30 02:24:24;;;;;;;0.10;0.10;;;;;;;;;;5093898;28;20016;-65
2021/03/30 02:26:49;;;;;;;0.10;0.10;;;;;;;;;;5082387;28;20400;-64
2021/03/30 02:29:16;;;;;;;0.10;0.10;;;;;;;;;;5073388;28;20024;-65
2021/03/30 02:31:41;;;;;;;0.10;0.10;;;;;;;;;;5073465;28;20354;-65
2021/03/30 02:34:07;;;;;;;0.10;0.10;;;;;;;;;;5072911;28;20115;-65
2021/03/30 02:36:32;;;;;;;0.10;0.10;;;;;;;;;;5072992;28;20111;-65
2021/03/30 02:38:59;;;;;;;0.10;0.10;;;;;;;;;;5073160;28;20024;-65
2021/03/30 02:41:25;;;;;;;0.10;0.10;;;;;;;;;;5072726;28;20051;-65
2021/03/30 02:43:50;;;;;;;0.10;0.10;;;;;;;;;;5056571;28;20548;-63
2021/03/30 02:46:15;;;;;;;0.10;0.10;;;;;;;;;;5090694;28;20024;-65
2021/03/30 02:48:42;;;;;;;0.10;0.10;;;;;;;;;;5072849;28;20650;-65
2021/03/30 02:51:07;;;;;;;0.10;0.10;;;;;;;;;;5056770;28;20039;-65
2021/03/30 02:53:32;;;;;;;0.10;0.10;;;;;;;;;;5056423;28;20380;-65
2021/03/30 02:55:57;;;;;;;0.10;0.10;;;;;;;;;;5073081;28;20541;-63
2021/03/30 02:58:23;;;;;;;0.03;0.03;;;;;;;;;;5055910;28;20426;-69
2021/03/30 03:00:48;;;;;;;0.10;0.10;;;;;;;;;;5072682;28;20020;-65
2021/03/30 03:03:13;;;;;;;0.10;0.10;;;;;;;;;;5072743;28;20532;-64
2021/03/30 03:05:38;;;;;;;0.10;0.10;;;;;;;;;;5073404;28;20476;-65
2021/03/30 03:08:04;;;;;;;0.10;0.10;;;;;;;;;;5056917;28;20704;-65
2021/03/30 03:10:29;;;;;;;0.10;0.10;;;;;;;;;;5072214;28;20388;-65
2021/03/30 03:12:54;;;;;;;0.10;0.10;;;;;;;;;;5073112;28;20059;-65
2021/03/30 03:15:20;;;;;;;0.10;0.10;;;;;;;;;;5056480;28;20655;-65
2021/03/30 03:17:45;;;;;;;0.10;0.10;;;;;;;;;;5075122;28;20024;-64
2021/03/30 03:20:12;;;;;;;0.10;0.10;;;;;;;;;;5056066;28;20028;-64
2021/03/30 03:22:37;;;;;;;0.10;0.10;;;;;;;;;;5072854;28;20586;-65
2021/03/30 03:25:03;;;;;;;0.10;0.10;;;;;;;;;;5056074;28;20012;-64
2021/03/30 03:27:28;;;;;;;0.10;0.10;;;;;;;;;;5071336;28;20487;-65
2021/03/30 03:29:54;;;;;;;0.10;0.10;;;;;;;;;;5076274;28;20110;-65
2021/03/30 03:32:23;;;;;;;0.20;0.10;;;;;;;;;;5074960;28;20374;-66
2021/03/30 03:34:48;;;;;;;0.10;0.10;;;;;;;;;;5075449;28;20072;-65
2021/03/30 03:37:13;;;;;;;0.10;0.10;;;;;;;;;;5092039;28;20028;-65
2021/03/30 03:39:38;;;;;;;0.10;0.10;;;;;;;;;;5075914;28;20084;-65
2021/03/30 03:42:04;;;;;;;0.10;0.10;;;;;;;;;;5092375;28;20770;-66
2021/03/30 03:44:29;;;;;;;0.10;0.10;;;;;;;;;;5110310;28;20313;-65
2021/03/30 03:46:54;;;;;;;0.20;0.20;;;;;;;;;;5110330;28;20095;-65
2021/03/30 03:49:22;;;;;;;0.10;0.10;;;;;;;;;;5111544;28;20266;-65
2021/03/30 03:51:51;;;;;;;0.10;0.10;;;;;;;;;;5092322;28;20111;-65
2021/03/30 03:54:17;;;;;;;0.10;0.10;;;;;;;;;;5075830;28;20429;-65
2021/03/30 03:56:46;;;;;;;0.10;0.10;;;;;;;;;;5093156;28;20028;-65
2021/03/30 03:59:14;;;;;;;0.15;0.15;;;;;;;;;;5075501;28;20011;-65
2021/03/30 04:01:46;;;;;;;0.10;0.10;;;;;;;;;;5072300;28;20637;-65
2021/03/30 04:04:15;;;;;;;0.10;0.10;;;;;;;;;;5092399;28;20030;-66
2021/03/30 04:06:46;;;;;;;0.10;0.10;;;;;;;;;;5074427;28;20019;-64
2021/03/30 04:09:11;;;;;;;0.10;0.10;;;;;;;;;;5072991;28;20023;-65
2021/03/30 04:11:37;;;;;;;0.13;0.13;;;;;;;;;;5089963;28;20031;-65
2021/03/30 04:14:02;;;;;;;0.10;0.10;;;;;;;;;;5074241;28;20019;-64
2021/03/30 04:16:27;;;;;;;0.10;0.10;;;;;;;;;;5090246;28;20969;-66
2021/03/30 04:18:52;;;;;;;0.10;0.10;;;;;;;;;;5074384;28;20134;-65
2021/03/30 04:21:20;;;;;;;0.20;0.20;;;;;;;;;;5089301;28;21825;-65
2021/03/30 04:23:46;;;;;;;0.10;0.10;;;;;;;;;;5072559;28;20276;-65
2021/03/30 04:26:11;;;;;;;0.10;0.10;;;;;;;;;;5085471;28;20657;-64
2021/03/30 04:28:37;;;;;;;0.17;0.17;;;;;;;;;;5070469;28;20031;-64
2021/03/30 04:31:02;;;;;;;0.20;0.20;;;;;;;;;;5088764;28;20020;-64
2021/03/30 04:33:28;;;;;;;0.10;0.10;;;;;;;;;;5068646;28;20036;-65
2021/03/30 04:35:53;;;;;;;0.10;0.10;;;;;;;;;;5068992;28;20111;-64
2021/03/30 04:38:18;;;;;;;0.10;0.10;;;;;;;;;;5053094;28;20047;-65
2021/03/30 04:40:50;;;;;;;0.20;0.20;;;;;;;;;;5088243;28;20073;-64
2021/03/30 04:43:15;;;;;;;0.13;0.13;;;;;;;;;;5054940;28;20266;-64
2021/03/30 04:45:40;;;;;;;0.10;0.10;;;;;;;;;;5092552;28;20376;-65
2021/03/30 04:48:06;;;;;;;0.10;0.10;;;;;;;;;;5073147;28;20273;-65
2021/03/30 04:50:31;;;;;;;0.13;0.13;;;;;;;;;;5091673;28;20274;-64
2021/03/30 04:52:56;;;;;;;0.10;0.10;;;;;;;;;;5057323;28;20036;-64
2021/03/30 04:55:21;;;;;;;0.20;0.20;;;;;;;;;;5092522;28;20104;-64
2021/03/30 04:57:47;;;;;;;0.10;0.10;;;;;;;;;;5057242;28;20028;-64
2021/03/30 05:00:12;;;;;;;0.20;0.20;;;;;;;;;;5057142;28;20036;-64
2021/03/30 05:02:37;;;;;;;0.10;0.10;;;;;;;;;;5092954;28;20153;-64
2021/03/30 05:05:03;;;;;;;0.10;0.10;;;;;;;;;;5074989;28;20730;-64
2021/03/30 05:07:28;;;;;;;0.20;0.20;;;;;;;;;;5075570;28;20266;-64
2021/03/30 05:09:53;;;;;;;0.20;0.20;;;;;;;;;;5093722;28;20086;-64
2021/03/30 05:12:19;;;;;;;0.20;0.20;;;;;;;;;;5075230;28;20059;-64
2021/03/30 05:14:44;;;;;;;0.20;0.20;;;;;;;;;;5078436;28;20460;-64
2021/03/30 05:17:09;;;;;;;0.20;0.20;;;;;;;;;;5088366;28;20020;-65
2021/03/30 05:19:36;;;;;;;0.13;0.13;;;;;;;;;;5105314;28;20049;-64
2021/03/30 05:22:01;;;;;;;0.10;0.10;;;;;;;;;;5074973;28;20499;-64
2021/03/30 05:24:26;;;;;;;0.10;0.10;;;;;;;;;;5074395;28;20030;-64
2021/03/30 05:26:51;;;;;;;0.10;0.10;;;;;;;;;;5066947;28;20434;-64
2021/03/30 05:29:17;;;;;;;0.20;0.20;;;;;;;;;;5093634;28;20056;-64
2021/03/30 05:31:42;;;;;;;0.10;0.10;;;;;;;;;;5094323;28;20392;-64
2021/03/30 05:34:07;;;;;;;0.20;0.20;;;;;;;;;;5093212;28;20327;-65
2021/03/30 05:36:35;;;;;;;0.20;0.20;;;;;;;;;;5077094;28;20265;-64
2021/03/30 05:39:00;;;;;;;0.17;0.17;;;;;;;;;;5093621;28;20418;-64
2021/03/30 05:41:25;;;;;;;0.20;0.20;;;;;;;;;;5092021;28;20053;-64
2021/03/30 05:43:51;;;;;;;0.20;0.20;;;;;;;;;;5075737;28;20356;-65
2021/03/30 05:46:16;;;;;;;0.20;0.20;;;;;;;;;;5093979;28;20031;-64
2021/03/30 05:48:44;;;;;;;0.20;0.20;;;;;;;;;;5110478;28;20042;-64
2021/03/30 05:51:11;;;;;;;0.13;0.13;;;;;;;;;;5104459;28;20028;-64
2021/03/30 05:53:36;;;;;;;0.20;0.20;;;;;;;;;;5093344;28;20073;-64
2021/03/30 05:56:02;;;;;;;0.20;0.20;;;;;;;;;;5093087;28;20422;-64
2021/03/30 05:58:28;;;;;;;0.20;0.20;;;;;;;;;;5076332;28;20273;-64
2021/03/30 06:00:54;;;;;;;0.20;0.20;;;;;;;;;;5093445;28;20026;-65
2021/03/30 06:03:22;;;;;;;0.20;0.20;;;;;;;;;;5093757;28;20119;-64
2021/03/30 06:05:51;;;;;;;0.10;0.10;;;;;;;;;;5093019;28;20634;-64
2021/03/30 06:08:16;;;;;;;0.10;0.10;;;;;;;;;;5102297;28;20058;-64
2021/03/30 06:10:41;;;;;;;0.10;0.10;;;;;;;;;;5075889;28;20434;-65
2021/03/30 06:13:06;;;;;;;0.20;0.20;;;;;;;;;;5093225;28;20312;-65
2021/03/30 06:15:32;;;;;;;0.17;0.17;;;;;;;;;;5092927;28;20265;-65
2021/03/30 06:17:58;;;;;;;0.10;0.10;;;;;;;;;;5111683;28;20448;-65
2021/03/30 06:20:26;;;;;;;0.20;0.20;;;;;;;;;;5093326;28;20019;-65
2021/03/30 06:22:52;;;;;;;0.20;0.20;;;;;;;;;;5093114;28;20027;-65
2021/03/30 06:25:38;;;;;;;0.20;0.20;;;;;;;;;;5092014;27;20020;-65
2021/03/30 06:28:15;;;;;;;0.10;0.10;;;;;;;;;;5089732;28;20422;-65
2021/03/30 06:30:53;;;;;;;0.10;0.10;;;;;;;;;;5073149;28;20024;-65
2021/03/30 06:33:19;;;;;;;0.10;0.10;;;;;;;;;;5071925;28;20344;-64
2021/03/30 06:35:44;;;;;;;0.20;0.20;;;;;;;;;;5090673;28;20066;-64
2021/03/30 06:38:09;;;;;;;0.13;0.13;;;;;;;;;;5072464;28;20051;-64
2021/03/30 06:40:38;;;;;;;0.20;0.20;;;;;;;;;;5072595;28;20298;-64
2021/03/30 06:44:24;;;;;;;0.10;0.10;;;;;;;;;;5071259;28;20377;-64
2021/03/30 06:46:01;;;;;;;0.10;0.10;;;;;;;;;;5089097;28;20536;-64
2021/03/30 06:48:26;;;;;;;0.10;0.10;;;;;;;;;;5072648;28;20093;-64
2021/03/30 06:50:51;;;;;;;0.10;0.10;;;;;;;;;;5072121;28;20297;-65
2021/03/30 06:53:22;;;;;;;0.10;0.10;;;;;;;;;;5090333;28;20365;-64
2021/03/30 06:55:48;;;;;;;0.10;0.10;;;;;;;;;;5090398;28;20267;-64
2021/03/30 06:58:15;;;;;;;0.20;0.20;;;;;;;;;;5072421;28;20035;-64
2021/03/30 07:00:40;;;;;;;0.20;0.20;;;;;;;;;;5089076;28;20051;-65
2021/03/30 07:03:05;;;;;;;0.10;0.10;;;;;;;;;;5055875;28;20055;-65
2021/03/30 07:05:40;;;;;;;0.10;0.10;;;;;;;;;;5071653;28;20331;-65
2021/03/30 07:08:09;;;;;;;0.10;0.10;;;;;;;;;;5072221;28;20016;-65
2021/03/30 07:10:35;;;;;;;0.15;0.15;;;;;;;;;;5090018;28;20032;-65
2021/03/30 07:13:00;;;;;;;0.10;0.10;;;;;;;;;;5070925;28;20142;-65
2021/03/30 07:15:25;;;;;;;0.10;0.10;;;;;;;;;;5071934;28;20473;-64
2021/03/30 07:17:53;;;;;;;0.10;0.10;;;;;;;;;;5055625;28;20031;-64
2021/03/30 07:20:19;;;;;;;0.10;0.10;;;;;;;;;;5090191;28;20346;-65
2021/03/30 07:22:45;;;;;;;0.10;0.10;;;;;;;;;;5072337;28;20020;-64
2021/03/30 07:25:11;;;;;;;0.10;0.10;;;;;;;;;;5055443;28;20020;-64
2021/03/30 07:27:47;;;;;;;0.10;0.10;;;;;;;;;;5055149;28;20514;-64
2021/03/30 07:30:13;;;;;;;0.10;0.10;;;;;;;;;;5055466;28;20028;-65
2021/03/30 07:32:43;;;;;;;0.10;0.10;;;;;;;;;;5072374;28;20523;-64
2021/03/30 07:35:09;;;;;;;0.10;0.10;;;;;;;;;;5055669;28;20023;-64
2021/03/30 07:37:41;;;;;;;0.10;0.10;;;;;;;;;;5089861;28;20020;-64
2021/03/30 07:40:07;;;;;;;0.10;0.10;;;;;;;;;;5071979;28;20023;-65
2021/03/30 07:42:32;;;;;;;0.10;0.10;;;;;;;;;;5070892;28;20032;-64
2021/03/30 07:44:57;;;;;;;0.10;0.10;;;;;;;;;;5071824;28;20089;-65
2021/03/30 07:47:23;;;;;;;0.10;0.10;;;;;;;;;;5072287;28;20461;-65
2021/03/30 07:49:50;;;;;;;0.10;0.10;;;;;;;;;;5090090;28;20266;-65
2021/03/30 07:52:19;;;;;;;0.10;0.10;;;;;;;;;;5072541;28;20069;-65
2021/03/30 07:55:03;;;;;;;0.10;0.10;;;;;;;;;;5090025;28;20018;-64
2021/03/30 07:57:54;;;;;;;0.10;0.10;;;;;;;;;;5089480;28;20031;-64
2021/03/30 08:00:32;;;;;;;0.10;0.10;;;;;;;;;;5084668;28;20035;-64
2021/03/30 08:02:57;;;;;;;0.10;0.10;;;;;;;;;;5089634;28;20091;-65
2021/03/30 08:05:26;;;;;;;0.10;0.10;;;;;;;;;;5090166;28;20587;-65
2021/03/30 08:07:54;;;;;;;0.10;0.10;;;;;;;;;;5072308;28;20028;-64
2021/03/30 08:10:26;;;;;;;0.13;0.13;;;;;;;;;;5055127;28;20031;-65
2021/03/30 08:13:11;;;;;;;0.10;0.10;;;;;;;;;;5071682;28;20795;-64
2021/03/30 08:15:43;;;;;;;0.10;0.10;;;;;;;;;;5070784;28;20020;-65
2021/03/30 08:18:09;;;;;;;0.10;0.10;;;;;;;;;;5074254;28;20059;-64
2021/03/30 08:20:49;;;;;;;0.10;0.10;;;;;;;;;;5059281;28;20059;-65
2021/03/30 08:23:14;;;;;;;0.10;0.10;;;;;;;;;;5058765;28;20016;-64
2021/03/30 08:25:40;;;;;;;0.10;0.10;;;;;;;;;;5093840;28;20061;-65
2021/03/30 08:28:05;;;;;;;0.10;0.10;;;;;;;;;;5094961;28;20645;-64
2021/03/30 08:30:36;;;;;;;0.10;0.10;;;;;;;;;;5078721;28;20042;-65
2021/03/30 08:33:02;;;;;;;0.10;0.10;;;;;;;;;;5113031;28;20015;-64
2021/03/30 08:35:27;;;;;;;0.10;0.10;;;;;;;;;;5095180;28;20073;-65
2021/03/30 08:37:53;;;;;;;0.10;0.10;;;;;;;;;;5093490;28;20069;-65
2021/03/30 08:40:41;;;;;;;0.10;0.10;;;;;;;;;;5078313;28;20023;-65
2021/03/30 08:43:13;;;;;;;0.10;0.10;;;;;;;;;;5080942;28;20142;-64
2021/03/30 08:45:58;;;;;;;0.10;0.10;;;;;;;;;;5111871;28;20047;-65
2021/03/30 08:48:33;;;;;;;0.10;0.10;;;;;;;;;;5093538;28;20060;-65
2021/03/30 08:50:59;;;;;;;0.10;0.10;;;;;;;;;;5094557;28;20057;-64
2021/03/30 08:53:29;;;;;;;0.10;0.10;;;;;;;;;;5092332;28;20062;-64
2021/03/30 08:55:54;;;;;;;0.10;0.10;;;;;;;;;;5108739;28;20020;-64
2021/03/30 08:58:19;;;;;;;0.00;0.00;;;;;;;;;;5075076;28;20723;-64
2021/03/30 09:00:44;;;;;;;0.10;0.10;;;;;;;;;;5092739;28;20392;-65
2021/03/30 09:03:10;;;;;;;0.10;0.10;;;;;;;;;;5074504;28;20022;-65
2021/03/30 09:05:44;;;;;;;0.00;0.00;;;;;;;;;;5091670;28;20073;-64
2021/03/30 09:08:10;;;;;;;0.10;0.10;;;;;;;;;;5075065;28;20019;-64
2021/03/30 09:10:36;;;;;;;0.10;0.10;;;;;;;;;;5089076;28;20497;-64
2021/03/30 09:13:15;;;;;;;0.10;0.10;;;;;;;;;;5109834;28;20051;-65
2021/03/30 09:15:40;;;;;;;0.10;0.10;;;;;;;;;;5075554;28;20019;-65
2021/03/30 09:18:05;;;;;;;0.00;0.00;;;;;;;;;;5075510;28;20031;-65
2021/03/30 09:20:33;;;;;;;0.10;0.10;;;;;;;;;;5110031;28;20551;-65
2021/03/30 09:23:02;;;;;;;0.10;0.10;;;;;;;;;;5092064;28;20067;-65
2021/03/30 09:25:51;;;;;;;0.00;0.00;;;;;;;;;;5092488;28;20034;-64
2021/03/30 09:28:17;;;;;;;0.00;0.00;;;;;;;;;;5109050;28;20111;-65
2021/03/30 09:30:43;;;;;;;0.00;0.00;;;;;;;;;;5074485;28;20114;-64
2021/03/30 09:33:08;;;;;;;0.00;0.00;;;;;;;;;;5075053;28;20019;-65
2021/03/30 09:35:33;;;;;;;0.00;0.00;;;;;;;;;;5091652;28;20023;-65
2021/03/30 09:38:01;;;;;;;0.10;0.10;;;;;;;;;;5091602;28;20270;-65
2021/03/30 09:40:31;;;;;;;0.10;0.10;;;;;;;;;;5093722;28;20026;-64
2021/03/30 09:42:57;;;;;;;0.00;0.00;;;;;;;;;;5091082;28;20035;-64
2021/03/30 09:45:24;;;;;;;0.00;0.00;;;;;;;;;;5075734;28;20752;-65
2021/03/30 09:47:50;;;;;;;0.00;0.00;;;;;;;;;;5073695;28;20107;-65
2021/03/30 09:50:17;;;;;;;0.10;0.10;;;;;;;;;;5092058;28;20134;-65
2021/03/30 09:52:43;;;;;;;0.03;0.03;;;;;;;;;;5074301;28;20026;-64
2021/03/30 09:55:08;;;;;;;0.00;0.00;;;;;;;;;;5092491;28;20106;-65
2021/03/30 09:57:34;;;;;;;0.00;0.00;;;;;;;;;;5108820;28;20118;-64
2021/03/30 09:59:59;;;;;;;0.00;0.00;;;;;;;;;;5110748;28;20112;-65
2021/03/30 10:02:25;;;;;;;0.00;0.00;;;;;;;;;;5094929;28;20094;-65
2021/03/30 10:04:53;;;;;;;0.10;0.10;;;;;;;;;;5079060;28;20508;-64
2021/03/30 10:07:19;;;;;;;0.10;0.10;;;;;;;;;;5112829;28;20104;-65
2021/03/30 10:10:17;;;;;;;0.00;0.00;;;;;;;;;;5081925;28;20039;-67
2021/03/30 10:12:55;;;;;;;0.10;0.10;;;;;;;;;;5088619;28;20031;-66
2021/03/30 10:15:30;;;;;;;0.00;0.00;;;;;;;;;;5097873;28;20455;-65
2021/03/30 10:17:56;;;;;;;0.00;0.00;;;;;;;;;;5089286;28;20022;-64
2021/03/30 10:20:21;;;;;;;0.00;0.00;;;;;;;;;;5090977;28;20493;-64
2021/03/30 10:22:46;;;;;;;0.00;0.00;;;;;;;;;;5109728;28;20008;-64
2021/03/30 10:25:16;;;;;;;0.00;0.00;;;;;;;;;;5091680;28;20487;-64
2021/03/30 10:27:55;;;;;;;0.00;0.00;;;;;;;;;;5092462;28;20051;-64
2021/03/30 10:33:15;;;;;;;0.00;0.00;;;;;;;;;;5090402;28;20430;-64
2021/03/30 10:35:40;;;;;;;0.00;0.00;;;;;;;;;;5072190;28;20035;-64
2021/03/30 10:38:06;;;;;;;0.00;0.00;;;;;;;;;;5072664;28;20028;-64
2021/03/30 10:40:35;;;;;;;0.00;0.00;;;;;;;;;;5072166;28;20038;-65
2021/03/30 10:43:19;;;;;;;0.00;0.00;;;;;;;;;;5072110;28;20024;-65
2021/03/30 10:45:44;;;;;;;0.00;0.00;;;;;;;;;;5090415;28;20043;-65
2021/03/30 10:48:10;;;;;;;0.00;0.00;;;;;;;;;;5072171;28;20028;-65
2021/03/30 10:50:35;;;;;;;0.00;0.00;;;;;;;;;;5072541;28;20540;-65
2021/03/30 10:53:00;;;;;;;0.00;0.00;;;;;;;;;;5072188;28;20024;-64
2021/03/30 10:55:26;;;;;;;0.00;0.00;;;;;;;;;;5071715;28;20028;-65
2021/03/30 10:57:52;;;;;;;0.00;0.00;;;;;;;;;;5071971;28;20476;-65
2021/03/30 11:00:17;;;;;;;0.00;0.00;;;;;;;;;;5072028;28;20072;-71
2021/03/30 11:02:43;;;;;;;0.00;0.00;;;;;;;;;;5071728;28;20120;-65
2021/03/30 11:05:08;;;;;;;0.00;0.00;;;;;;;;;;5072218;28;20024;-65
2021/03/30 11:07:33;;;;;;;0.00;0.00;;;;;;;;;;5090206;28;20047;-66
2021/03/30 11:09:59;;;;;;;0.00;0.00;;;;;;;;;;5072078;28;20028;-65
2021/03/30 11:12:24;;;;;;;0.00;0.00;;;;;;;;;;5090044;28;20754;-65
2021/03/30 11:14:50;;;;;;;0.00;0.00;;;;;;;;;;5055510;28;20142;-65
2021/03/30 11:17:15;;;;;;;0.00;0.00;;;;;;;;;;5071971;28;20023;-65
2021/03/30 11:19:40;;;;;;;0.00;0.00;;;;;;;;;;5090053;28;20262;-65
2021/03/30 11:22:05;;;;;;;0.00;0.00;;;;;;;;;;5054277;28;20039;-65
2021/03/30 11:24:34;;;;;;;0.00;0.00;;;;;;;;;;5054997;28;20035;-65
2021/03/30 11:26:59;;;;;;;0.00;0.00;;;;;;;;;;5092361;28;20050;-64
2021/03/30 11:29:41;;;;;;;0.00;0.00;;;;;;;;;;5054843;28;20020;-64
2021/03/30 11:34:38;;;;;;;0.00;0.00;;;;;;;;;;5072360;28;20015;-65
2021/03/30 11:37:36;;;;;;;0.00;0.00;;;;;;;;;;5071075;28;20012;-65
2021/03/30 11:40:02;;;;;;;0.00;0.00;;;;;;;;;;5086377;28;20102;-65
2021/03/30 11:42:27;;;;;;;0.00;0.00;;;;;;;;;;5100319;28;20133;-65
2021/03/30 11:44:52;;;;;;;0.00;0.00;;;;;;;;;;5070587;28;20368;-65
2021/03/30 11:47:18;;;;;;;0.00;0.00;;;;;;;;;;5080032;28;20028;-65
2021/03/30 11:49:43;;;;;;;0.00;0.00;;;;;;;;;;5081850;28;20011;-65
2021/03/30 11:52:08;;;;;;;0.00;0.00;;;;;;;;;;5061787;28;20484;-65
2021/03/30 11:54:33;;;;;;;0.00;0.00;;;;;;;;;;5082768;28;20269;-66
2021/03/30 11:56:59;;;;;;;0.00;0.00;;;;;;;;;;5078078;28;20288;-66
2021/03/30 11:59:24;;;;;;;0.00;0.00;;;;;;;;;;5094340;28;20028;-66
2021/03/30 12:01:49;;;;;;;0.00;0.00;;;;;;;;;;5075479;28;20399;-65
2021/03/30 12:04:14;;;;;;;0.00;0.00;;;;;;;;;;5100745;28;20323;-66
2021/03/30 12:06:40;;;;;;;0.00;0.00;;;;;;;;;;5084668;28;20019;-66
2021/03/30 12:09:05;;;;;;;0.00;0.00;;;;;;;;;;5075610;28;20415;-66
2021/03/30 12:11:30;;;;;;;0.00;0.00;;;;;;;;;;5096622;28;20035;-67
2021/03/30 12:13:56;;;;;;;0.00;0.00;;;;;;;;;;5065723;28;20016;-66
2021/03/30 12:16:21;;;;;;;0.00;0.00;;;;;;;;;;5073516;28;20375;-66
2021/03/30 12:18:46;;;;;;;0.00;0.00;;;;;;;;;;5073417;28;20056;-65
2021/03/30 12:21:11;;;;;;;0.00;0.00;;;;;;;;;;5067918;28;20031;-65
2021/03/30 12:23:37;;;;;;;0.00;0.00;;;;;;;;;;5048721;28;20277;-66
2021/03/30 12:26:02;;;;;;;0.00;0.00;;;;;;;;;;5067296;28;20364;-65
2021/03/30 12:28:27;;;;;;;0.00;0.00;;;;;;;;;;5082661;28;20051;-64
2021/03/30 12:30:52;;;;;;;0.00;0.00;;;;;;;;;;5062394;28;20016;-64
2021/03/30 12:33:18;;;;;;;0.00;0.00;;;;;;;;;;5064845;28;20278;-64
2021/03/30 12:35:43;;;;;;;0.00;0.00;;;;;;;;;;5062609;28;20392;-64
2021/03/30 12:38:08;;;;;;;0.00;0.00;;;;;;;;;;5078453;28;20055;-64
2021/03/30 12:40:34;;;;;;;0.00;0.00;;;;;;;;;;5078569;28;20453;-64
2021/03/30 12:42:59;;;;;;;0.00;0.00;;;;;;;;;;5060906;28;20825;-64
2021/03/30 12:45:24;;;;;;;0.00;0.00;;;;;;;;;;5079658;28;20030;-64
2021/03/30 12:47:49;;;;;;;0.00;0.00;;;;;;;;;;5079437;28;20035;-65
2021/03/30 12:50:15;;;;;;;0.00;0.00;;;;;;;;;;5079346;28;20032;-65
2021/03/30 12:52:40;;;;;;;0.00;0.00;;;;;;;;;;5059845;28;20020;-64
2021/03/30 12:55:06;;;;;;;0.00;0.00;;;;;;;;;;5062604;28;20090;-65
2021/03/30 12:57:32;;;;;;;0.00;0.00;;;;;;;;;;5084590;28;20028;-64
2021/03/30 12:59:57;;;;;;;0.00;0.00;;;;;;;;;;5070958;28;20031;-64
2021/03/30 13:02:22;;;;;;;0.00;0.00;;;;;;;;;;5092061;28;20118;-64
2021/03/30 13:04:47;;;;;;;0.00;0.00;;;;;;;;;;5090680;28;20347;-65
2021/03/30 13:07:17;;;;;;;0.00;0.00;;;;;;;;;;5072044;28;20028;-65
2021/03/30 13:09:42;;;;;;;0.00;0.00;;;;;;;;;;5097103;28;20012;-64
2021/03/30 13:12:07;;;;;;;0.00;0.00;;;;;;;;;;5074381;28;20050;-65
2021/03/30 13:14:33;;;;;;;0.00;0.00;;;;;;;;;;5077282;28;20027;-64
2021/03/30 13:16:58;;;;;;;0.00;0.00;;;;;;;;;;5100374;28;20024;-66
2021/03/30 13:19:23;;;;;;;0.00;0.00;;;;;;;;;;5075360;28;20028;-65
2021/03/30 13:21:48;;;;;;;0.00;0.00;;;;;;;;;;5072104;28;20028;-64
2021/03/30 13:24:14;;;;;;;0.00;0.00;;;;;;;;;;5073372;28;20106;-65
2021/03/30 13:26:41;;;;;;;0.00;0.00;;;;;;;;;;5058514;28;20075;-65
2021/03/30 13:29:06;;;;;;;0.00;0.00;;;;;;;;;;5087904;28;20064;-64
2021/03/30 13:31:31;;;;;;;0.00;0.00;;;;;;;;;;5089572;28;20065;-65
2021/03/30 13:33:57;;;;;;;0.00;0.00;;;;;;;;;;5071162;28;20024;-64
2021/03/30 13:36:22;;;;;;;0.00;0.00;;;;;;;;;;5071251;28;20077;-64
2021/03/30 13:38:48;;;;;;;0.00;0.00;;;;;;;;;;5091090;28;20274;-65
2021/03/30 13:41:14;;;;;;;0.00;0.00;;;;;;;;;;5073876;28;20032;-65
2021/03/30 13:43:39;;;;;;;0.00;0.00;;;;;;;;;;5073020;28;20020;-65
2021/03/30 13:46:05;;;;;;;0.00;0.00;;;;;;;;;;5073664;28;20140;-65
2021/03/30 13:48:30;;;;;;;0.00;0.00;;;;;;;;;;5071925;28;20447;-65
2021/03/30 13:50:55;;;;;;;0.00;0.00;;;;;;;;;;5072266;28;20378;-65
2021/03/30 13:53:20;;;;;;;0.00;0.00;;;;;;;;;;5087856;28;20458;-65
2021/03/30 13:55:45;;;;;;;0.00;0.00;;;;;;;;;;5056378;28;20039;-65
2021/03/30 13:58:12;;;;;;;0.00;0.00;;;;;;;;;;5073053;28;20043;-65
2021/03/30 14:00:37;;;;;;;0.00;0.00;;;;;;;;;;5071406;28;20126;-65
2021/03/30 14:03:02;;;;;;;0.00;0.00;;;;;;;;;;5072428;28;20114;-65
2021/03/30 14:05:27;;;;;;;0.00;0.00;;;;;;;;;;5091187;28;20039;-65
2021/03/30 14:07:52;;;;;;;0.00;0.00;;;;;;;;;;5073146;28;20077;-65
2021/03/30 14:10:20;;;;;;;0.00;0.00;;;;;;;;;;5073273;28;20061;-65
2021/03/30 14:18:04;;;;;;;0.00;0.00;;;;;;;;;;5072994;28;20016;-65
2021/03/30 14:20:30;;;;;;;0.00;0.00;;;;;;;;;;5090506;28;20016;-65
2021/03/30 14:23:05;;;;;;;0.00;0.00;;;;;;;;;;5073713;28;20078;-65
2021/03/30 14:25:33;;;;;;;0.00;0.00;;;;;;;;;;5084855;28;20020;-65
2021/03/30 14:27:59;;;;;;;0.00;0.00;;;;;;;;;;5090490;28;20052;-65
2021/03/30 14:30:24;;;;;;;0.00;0.00;;;;;;;;;;5055827;28;20357;-65
2021/03/30 14:32:49;;;;;;;0.00;0.00;;;;;;;;;;5072826;28;20126;-65
2021/03/30 14:35:14;;;;;;;0.00;0.00;;;;;;;;;;5072840;28;20294;-65
2021/03/30 14:37:40;;;;;;;0.00;0.00;;;;;;;;;;5072546;28;20456;-65
2021/03/30 14:40:18;;;;;;;0.00;0.00;;;;;;;;;;5072332;28;20026;-65
2021/03/30 14:42:50;;;;;;;0.00;0.00;;;;;;;;;;5074188;28;20020;-66
2021/03/30 14:53:30;;;;;;;0.00;0.00;;;;;;;;;;5074113;28;20024;-65
2021/03/30 14:56:01;;;;;;;0.00;0.00;;;;;;;;;;5072537;28;20357;-65
2021/03/30 14:58:33;;;;;;;0.00;0.00;;;;;;;;;;5071700;28;20024;-65
2021/03/30 15:03:42;;;;;;;0.00;0.00;;;;;;;;;;5090557;28;20016;-65
2021/03/30 15:06:08;;;;;;;0.00;0.00;;;;;;;;;;5072468;28;20016;-65